LFBH

La Rochelle-Île de Ré Airport

La Rochelle/Île de Ré, France
TAF LFBH 260500Z 2606/2706 VRB03KT 9999 BKN030 PROB40 TEMPO 2606/2611 -SHRA BKN020 BECMG 2612/2614 30010KT CAVOK BECMG 2620/2622 02010KT BECMG 2702/2705 12010KT
Issued Valid From Valid To
Apr-26 @ 05:00 UTC
(60 minutes ago)
Apr-26 @ 06:00 UTC
(a few seconds ago)
Apr-27 @ 06:00 UTC
(in 24 hours)
Apr-26 @ 06:00 to Apr-26 @ 12:00
TAF LFBH 260500Z 2606/2706 VRB03KT 9999 BKN030
Wind Visibility Clouds
Variable at 3 knots 10,000+ meters
  • Broken at 3,000' AGL
Temporary  (Probability 40%) Apr-26 @ 06:00 to Apr-26 @ 11:00
PROB40 TEMPO 2606/2611 -SHRA BKN020
Clouds Conditions
  • Broken at 2,000' AGL
  • Light Rain
Becoming Apr-26 @ 12:00 to Apr-26 @ 20:00
BECMG 2612/2614 30010KT CAVOK
Wind Visibility Clouds Conditions
300° at 10 knots 10,000+ meters
  • No significant clouds
Becoming Apr-26 @ 20:00 to Apr-27 @ 02:00
BECMG 2620/2622 02010KT
Wind Visibility Clouds Conditions
20° at 10 knots 10,000+ meters
  • No significant clouds
Becoming Apr-27 @ 02:00 to Apr-27 @ 06:00
BECMG 2702/2705 12010KT
Wind Visibility Clouds Conditions
120° at 10 knots 10,000+ meters
  • No significant clouds
TAF LFBH 260500Z 2606/2706 VRB03KT 9999 BKN030 PROB40 TEMPO 2606/2611 -SHRA BKN020 BECMG 2612/2614 30010KT CAVOK BECMG 2620/2622 02010KT BECMG 2702/2705 12010KT
Issued Apr-26 @ 05:00 UTC
(60 minutes ago)
Valid From Apr-26 @ 06:00 UTC
(a few seconds ago)
Valid To Apr-27 @ 06:00 UTC
(in 24 hours)
Apr-26 @ 06:00 - Apr-26 @ 12:00
Wind Visibility
Variable at 3 knots 10,000+ meters
Clouds
  • Broken at 3,000' AGL
Probability 40% Temporary Apr-26 @ 06:00 - Apr-26 @ 11:00
Clouds
  • Broken at 2,000' AGL
Conditions
  • Light Rain
Becoming Apr-26 @ 12:00 - Apr-26 @ 20:00
Wind Visibility
300° at 10 knots 10,000+ meters
Clouds
  • No significant clouds
Conditions
Becoming Apr-26 @ 20:00 - Apr-27 @ 02:00
Wind Visibility
20° at 10 knots 10,000+ meters
Clouds
  • No significant clouds
Conditions
Becoming Apr-27 @ 02:00 - Apr-27 @ 06:00
Wind Visibility
120° at 10 knots 10,000+ meters
Clouds
  • No significant clouds
Conditions